sensor_id;sensor_type;location;lat;lon;timestamp;pressure;altitude;pressure_sealevel;temperature;humidity
59043;BME280;44826;51.596;5.624;2023-03-08T00:02:13;99998.69;;;-0.39;92.70
59043;BME280;44826;51.596;5.624;2023-03-08T00:04:38;100001.25;;;-0.38;92.60
59043;BME280;44826;51.596;5.624;2023-03-08T00:07:04;100000.41;;;-0.38;92.97
59043;BME280;44826;51.596;5.624;2023-03-08T00:09:29;99996.13;;;-0.41;92.39
59043;BME280;44826;51.596;5.624;2023-03-08T00:11:54;99996.13;;;-0.42;92.80
59043;BME280;44826;51.596;5.624;2023-03-08T00:14:20;99986.75;;;-0.43;92.97
59043;BME280;44826;51.596;5.624;2023-03-08T00:16:46;99983.34;;;-0.44;93.16
59043;BME280;44826;51.596;5.624;2023-03-08T00:19:12;99981.63;;;-0.43;92.83
59043;BME280;44826;51.596;5.624;2023-03-08T00:21:37;99982.47;;;-0.44;93.47
59043;BME280;44826;51.596;5.624;2023-03-08T00:24:02;99985.03;;;-0.44;92.85
59043;BME280;44826;51.596;5.624;2023-03-08T00:26:28;99985.03;;;-0.46;92.90
59043;BME280;44826;51.596;5.624;2023-03-08T00:28:53;99994.41;;;-0.45;93.21
59043;BME280;44826;51.596;5.624;2023-03-08T00:31:18;99990.13;;;-0.44;93.81
59043;BME280;44826;51.596;5.624;2023-03-08T00:33:44;99988.44;;;-0.42;93.12
59043;BME280;44826;51.596;5.624;2023-03-08T00:36:14;99988.44;;;-0.41;93.57
59043;BME280;44826;51.596;5.624;2023-03-08T00:38:40;99988.47;;;-0.44;93.01
59043;BME280;44826;51.596;5.624;2023-03-08T00:41:05;99993.56;;;-0.44;93.32
59043;BME280;44826;51.596;5.624;2023-03-08T00:43:31;99983.34;;;-0.42;93.77
59043;BME280;44826;51.596;5.624;2023-03-08T00:45:57;99986.75;;;-0.40;93.68
59043;BME280;44826;51.596;5.624;2023-03-08T00:48:22;99986.78;;;-0.36;93.75
59043;BME280;44826;51.596;5.624;2023-03-08T00:50:48;99985.94;;;-0.36;93.60
59043;BME280;44826;51.596;5.624;2023-03-08T00:53:13;99980.84;;;-0.36;93.56
59043;BME280;44826;51.596;5.624;2023-03-08T00:55:45;99979.97;;;-0.37;93.91
59043;BME280;44826;51.596;5.624;2023-03-08T00:58:10;99977.44;;;-0.35;93.38
59043;BME280;44826;51.596;5.624;2023-03-08T01:00:35;99979.13;;;-0.37;93.47
59043;BME280;44826;51.596;5.624;2023-03-08T01:03:00;99979.97;;;-0.37;93.85
59043;BME280;44826;51.596;5.624;2023-03-08T01:05:26;99978.25;;;-0.38;93.33
59043;BME280;44826;51.596;5.624;2023-03-08T01:07:51;99976.56;;;-0.36;93.37
59043;BME280;44826;51.596;5.624;2023-03-08T01:10:16;99971.44;;;-0.36;93.74
59043;BME280;44826;51.596;5.624;2023-03-08T01:12:42;99968.03;;;-0.33;93.42
59043;BME280;44826;51.596;5.624;2023-03-08T01:15:07;99967.19;;;-0.32;93.67
59043;BME280;44826;51.596;5.624;2023-03-08T01:17:33;99962.94;;;-0.30;93.65
59043;BME280;44826;51.596;5.624;2023-03-08T01:19:58;99952.75;;;-0.28;93.87
59043;BME280;44826;51.596;5.624;2023-03-08T01:22:23;99950.19;;;-0.27;94.30
59043;BME280;44826;51.596;5.624;2023-03-08T01:24:48;99952.75;;;-0.28;93.79
59043;BME280;44826;51.596;5.624;2023-03-08T01:27:14;99939.09;;;-0.29;93.79
59043;BME280;44826;51.596;5.624;2023-03-08T01:29:41;99938.25;;;-0.29;93.11
59043;BME280;44826;51.596;5.624;2023-03-08T01:32:07;99939.09;;;-0.31;93.35
59043;BME280;44826;51.596;5.624;2023-03-08T01:34:35;99934.81;;;-0.33;93.36
59043;BME280;44826;51.596;5.624;2023-03-08T01:37:00;99931.41;;;-0.34;92.87
59043;BME280;44826;51.596;5.624;2023-03-08T01:39:25;99920.34;;;-0.36;92.87
59043;BME280;44826;51.596;5.624;2023-03-08T01:41:50;99916.94;;;-0.36;92.81
59043;BME280;44826;51.596;5.624;2023-03-08T01:44:18;99906.72;;;-0.36;93.09
59043;BME280;44826;51.596;5.624;2023-03-08T01:46:43;99909.28;;;-0.36;93.08
59043;BME280;44826;51.596;5.624;2023-03-08T01:49:17;99905.88;;;-0.35;93.61
59043;BME280;44826;51.596;5.624;2023-03-08T01:51:53;99903.31;;;-0.34;93.56
59043;BME280;44826;51.596;5.624;2023-03-08T01:54:48;99902.44;;;-0.34;93.43
59043;BME280;44826;51.596;5.624;2023-03-08T01:57:26;99902.44;;;-0.34;92.85
59043;BME280;44826;51.596;5.624;2023-03-08T02:00:03;99895.66;;;-0.35;93.12
59043;BME280;44826;51.596;5.624;2023-03-08T02:02:35;99893.94;;;-0.35;93.83
59043;BME280;44826;51.596;5.624;2023-03-08T02:05:02;99899.03;;;-0.33;94.24
59043;BME280;44826;51.596;5.624;2023-03-08T02:07:28;99889.69;;;-0.31;94.31
59043;BME280;44826;51.596;5.624;2023-03-08T02:09:53;99890.53;;;-0.29;94.42
59043;BME280;44826;51.596;5.624;2023-03-08T02:12:19;99888.84;;;-0.27;94.17
59043;BME280;44826;51.596;5.624;2023-03-08T02:14:46;99885.47;;;-0.23;94.78
59043;BME280;44826;51.596;5.624;2023-03-08T02:17:11;99878.66;;;-0.21;94.24
59043;BME280;44826;51.596;5.624;2023-03-08T02:19:45;99877.78;;;-0.18;94.69
59043;BME280;44826;51.596;5.624;2023-03-08T02:22:14;99871.81;;;-0.16;94.89
59043;BME280;44826;51.596;5.624;2023-03-08T02:24:40;99862.47;;;-0.13;94.62
59043;BME280;44826;51.596;5.624;2023-03-08T02:27:10;99864.19;;;-0.11;95.17
59043;BME280;44826;51.596;5.624;2023-03-08T02:29:37;99855.69;;;-0.10;94.43
59043;BME280;44826;51.596;5.624;2023-03-08T02:32:03;99852.28;;;-0.09;94.44
59043;BME280;44826;51.596;5.624;2023-03-08T02:34:28;99847.13;;;-0.10;94.63
59043;BME280;44826;51.596;5.624;2023-03-08T02:36:54;99848.84;;;-0.09;94.48
59043;BME280;44826;51.596;5.624;2023-03-08T02:39:19;99849.72;;;-0.09;94.10
59043;BME280;44826;51.596;5.624;2023-03-08T02:41:44;99845.44;;;-0.08;94.27
59043;BME280;44826;51.596;5.624;2023-03-08T02:44:10;99842.88;;;-0.08;94.05
59043;BME280;44826;51.596;5.624;2023-03-08T02:46:35;99839.47;;;-0.07;94.34
59043;BME280;44826;51.596;5.624;2023-03-08T02:49:00;99835.19;;;-0.07;94.49
59043;BME280;44826;51.596;5.624;2023-03-08T02:51:25;99831.81;;;-0.07;94.29
59043;BME280;44826;51.596;5.624;2023-03-08T02:53:51;99832.66;;;-0.05;94.10
59043;BME280;44826;51.596;5.624;2023-03-08T02:56:16;99829.25;;;-0.06;94.28
59043;BME280;44826;51.596;5.624;2023-03-08T02:58:41;99827.56;;;-0.05;94.71
59043;BME280;44826;51.596;5.624;2023-03-08T03:01:11;99831.81;;;-0.04;94.83
59043;BME280;44826;51.596;5.624;2023-03-08T03:03:37;99829.25;;;-0.04;94.48
59043;BME280;44826;51.596;5.624;2023-03-08T03:06:02;99830.97;;;-0.03;94.95
59043;BME280;44826;51.596;5.624;2023-03-08T03:08:29;99835.22;;;-0.02;94.59
59043;BME280;44826;51.596;5.624;2023-03-08T03:10:54;99822.44;;;-0.02;94.67
59043;BME280;44826;51.596;5.624;2023-03-08T03:13:20;99827.56;;;-0.02;94.68
59043;BME280;44826;51.596;5.624;2023-03-08T03:15:45;99828.41;;;0.00;95.03
59043;BME280;44826;51.596;5.624;2023-03-08T03:18:10;99810.50;;;0.02;94.40
59043;BME280;44826;51.596;5.624;2023-03-08T03:20:36;99796.84;;;0.01;94.47
59043;BME280;44826;51.596;5.624;2023-03-08T03:23:01;99803.69;;;0.02;94.46
59043;BME280;44826;51.596;5.624;2023-03-08T03:25:27;99807.94;;;0.03;94.66
59043;BME280;44826;51.596;5.624;2023-03-08T03:27:53;99800.28;;;0.03;94.16
59043;BME280;44826;51.596;5.624;2023-03-08T03:30:19;99794.31;;;0.04;94.48
59043;BME280;44826;51.596;5.624;2023-03-08T03:32:44;99799.41;;;0.04;94.94
59043;BME280;44826;51.596;5.624;2023-03-08T03:35:09;99793.44;;;0.05;94.22
59043;BME280;44826;51.596;5.624;2023-03-08T03:37:35;99794.31;;;0.06;94.66
59043;BME280;44826;51.596;5.624;2023-03-08T03:40:01;99780.69;;;0.07;94.36
59043;BME280;44826;51.596;5.624;2023-03-08T03:42:26;99766.19;;;0.07;94.19
59043;BME280;44826;51.596;5.624;2023-03-08T03:44:51;99761.06;;;0.09;94.50
59043;BME280;44826;51.596;5.624;2023-03-08T03:47:16;99753.41;;;0.07;94.57
59043;BME280;44826;51.596;5.624;2023-03-08T03:49:42;99755.09;;;0.08;94.94
59043;BME280;44826;51.596;5.624;2023-03-08T03:52:07;99760.19;;;0.10;94.62
59043;BME280;44826;51.596;5.624;2023-03-08T03:54:32;99753.41;;;0.10;94.94
59043;BME280;44826;51.596;5.624;2023-03-08T03:56:58;99757.66;;;0.10;94.62
59043;BME280;44826;51.596;5.624;2023-03-08T03:59:24;99762.78;;;0.11;94.86
59043;BME280;44826;51.596;5.624;2023-03-08T04:01:50;99756.78;;;0.11;94.64
59043;BME280;44826;51.596;5.624;2023-03-08T04:04:15;99750.00;;;0.11;94.89
59043;BME280;44826;51.596;5.624;2023-03-08T04:06:41;99740.63;;;0.10;94.87
59043;BME280;44826;51.596;5.624;2023-03-08T04:09:09;99750.84;;;0.10;94.81
59043;BME280;44826;51.596;5.624;2023-03-08T04:11:38;99746.56;;;0.11;94.67
59043;BME280;44826;51.596;5.624;2023-03-08T04:14:04;99738.03;;;0.12;94.66
59043;BME280;44826;51.596;5.624;2023-03-08T04:16:31;99736.34;;;0.12;94.80
59043;BME280;44826;51.596;5.624;2023-03-08T04:18:59;99731.22;;;0.11;94.77
59043;BME280;44826;51.596;5.624;2023-03-08T04:21:25;99726.13;;;0.12;94.59
59043;BME280;44826;51.596;5.624;2023-03-08T04:23:51;99719.28;;;0.13;94.10
59043;BME280;44826;51.596;5.624;2023-03-08T04:26:16;99714.16;;;0.13;94.75
59043;BME280;44826;51.596;5.624;2023-03-08T04:28:42;99707.34;;;0.12;94.17
59043;BME280;44826;51.596;5.624;2023-03-08T04:31:16;99706.50;;;0.11;94.72
59043;BME280;44826;51.596;5.624;2023-03-08T04:33:42;99709.91;;;0.12;94.53
59043;BME280;44826;51.596;5.624;2023-03-08T04:36:08;99703.94;;;0.13;94.84
59043;BME280;44826;51.596;5.624;2023-03-08T04:38:34;99696.28;;;0.13;94.93
59043;BME280;44826;51.596;5.624;2023-03-08T04:41:00;99691.16;;;0.14;95.04
59043;BME280;44826;51.596;5.624;2023-03-08T04:43:25;99692.88;;;0.16;94.93
59043;BME280;44826;51.596;5.624;2023-03-08T04:45:51;99686.06;;;0.14;94.88
59043;BME280;44826;51.596;5.624;2023-03-08T04:48:16;99683.50;;;0.14;94.23
59043;BME280;44826;51.596;5.624;2023-03-08T04:50:42;99682.66;;;0.16;94.40
59043;BME280;44826;51.596;5.624;2023-03-08T04:53:07;99680.09;;;0.16;94.65
59043;BME280;44826;51.596;5.624;2023-03-08T04:55:35;99667.31;;;0.16;95.02
59043;BME280;44826;51.596;5.624;2023-03-08T04:58:00;99663.00;;;0.18;94.84
59043;BME280;44826;51.596;5.624;2023-03-08T05:00:25;99657.06;;;0.17;94.97
59043;BME280;44826;51.596;5.624;2023-03-08T05:02:51;99662.16;;;0.19;94.66
59043;BME280;44826;51.596;5.624;2023-03-08T05:05:16;99645.97;;;0.18;94.78
59043;BME280;44826;51.596;5.624;2023-03-08T05:07:41;99641.69;;;0.19;95.06
59043;BME280;44826;51.596;5.624;2023-03-08T05:10:07;99632.31;;;0.18;95.01
59043;BME280;44826;51.596;5.624;2023-03-08T05:12:32;99628.09;;;0.17;95.02
59043;BME280;44826;51.596;5.624;2023-03-08T05:14:57;99623.81;;;0.16;94.83
59043;BME280;44826;51.596;5.624;2023-03-08T05:17:23;99628.91;;;0.17;94.67
59043;BME280;44826;51.596;5.624;2023-03-08T05:19:48;99623.78;;;0.19;95.39
59043;BME280;44826;51.596;5.624;2023-03-08T05:22:14;99620.38;;;0.20;95.13
59043;BME280;44826;51.596;5.624;2023-03-08T05:24:40;99612.69;;;0.20;94.98
59043;BME280;44826;51.596;5.624;2023-03-08T05:27:06;99609.31;;;0.22;95.17
59043;BME280;44826;51.596;5.624;2023-03-08T05:29:32;99605.88;;;0.22;94.67
59043;BME280;44826;51.596;5.624;2023-03-08T05:31:59;99601.63;;;0.21;94.94
59043;BME280;44826;51.596;5.624;2023-03-08T05:34:26;99596.50;;;0.21;95.19
59043;BME280;44826;51.596;5.624;2023-03-08T05:36:51;99595.66;;;0.23;94.79
59043;BME280;44826;51.596;5.624;2023-03-08T05:39:16;99589.69;;;0.23;94.78
59043;BME280;44826;51.596;5.624;2023-03-08T05:41:42;99596.50;;;0.24;94.80
59043;BME280;44826;51.596;5.624;2023-03-08T05:44:07;99581.16;;;0.24;94.83
59043;BME280;44826;51.596;5.624;2023-03-08T05:46:32;99571.78;;;0.24;95.02
59043;BME280;44826;51.596;5.624;2023-03-08T05:48:57;99559.00;;;0.24;94.95
59043;BME280;44826;51.596;5.624;2023-03-08T05:51:23;99561.53;;;0.26;94.98
59043;BME280;44826;51.596;5.624;2023-03-08T05:53:48;99551.31;;;0.26;94.66
59043;BME280;44826;51.596;5.624;2023-03-08T05:56:19;99555.59;;;0.25;94.63
59043;BME280;44826;51.596;5.624;2023-03-08T05:58:44;99551.31;;;0.26;94.79
59043;BME280;44826;51.596;5.624;2023-03-08T06:01:18;99548.72;;;0.27;95.04
59043;BME280;44826;51.596;5.624;2023-03-08T06:03:45;99540.22;;;0.27;94.69
59043;BME280;44826;51.596;5.624;2023-03-08T06:06:11;99537.66;;;0.27;95.04
59043;BME280;44826;51.596;5.624;2023-03-08T06:08:36;99530.84;;;0.29;94.68
59043;BME280;44826;51.596;5.624;2023-03-08T06:11:02;99531.69;;;0.28;94.97
59043;BME280;44826;51.596;5.624;2023-03-08T06:13:27;99523.16;;;0.27;94.70
59043;BME280;44826;51.596;5.624;2023-03-08T06:15:57;99525.72;;;0.27;94.69
59043;BME280;44826;51.596;5.624;2023-03-08T06:18:23;99524.00;;;0.28;94.93
59043;BME280;44826;51.596;5.624;2023-03-08T06:21:05;99520.59;;;0.26;94.54
59043;BME280;44826;51.596;5.624;2023-03-08T06:23:32;99522.31;;;0.24;94.57
59043;BME280;44826;51.596;5.624;2023-03-08T06:25:58;99519.78;;;0.21;94.63
59043;BME280;44826;51.596;5.624;2023-03-08T06:28:25;99524.88;;;0.21;94.49
59043;BME280;44826;51.596;5.624;2023-03-08T06:30:51;99525.75;;;0.18;94.72
59043;BME280;44826;51.596;5.624;2023-03-08T06:33:17;99521.53;;;0.16;94.30
59043;BME280;44826;51.596;5.624;2023-03-08T06:36:06;99514.72;;;0.11;94.05
59043;BME280;44826;51.596;5.624;2023-03-08T06:38:34;99515.56;;;0.10;94.38
59043;BME280;44826;51.596;5.624;2023-03-08T06:41:00;99518.13;;;0.07;94.21
59043;BME280;44826;51.596;5.624;2023-03-08T06:43:25;99513.88;;;0.06;94.18
59043;BME280;44826;51.596;5.624;2023-03-08T06:45:51;99513.88;;;0.03;93.60
59043;BME280;44826;51.596;5.624;2023-03-08T06:48:16;99512.19;;;0.02;94.00
59043;BME280;44826;51.596;5.624;2023-03-08T06:50:42;99512.19;;;0.01;93.97
59043;BME280;44826;51.596;5.624;2023-03-08T06:53:08;99509.63;;;0.01;93.88
59043;BME280;44826;51.596;5.624;2023-03-08T06:55:35;99508.81;;;0.00;93.48
59043;BME280;44826;51.596;5.624;2023-03-08T06:58:00;99502.84;;;-0.02;94.22
59043;BME280;44826;51.596;5.624;2023-03-08T07:00:26;99510.50;;;-0.02;94.35
59043;BME280;44826;51.596;5.624;2023-03-08T07:02:51;99502.84;;;-0.05;94.25
59043;BME280;44826;51.596;5.624;2023-03-08T07:05:17;99513.94;;;-0.06;94.14
59043;BME280;44826;51.596;5.624;2023-03-08T07:07:43;99513.09;;;-0.08;93.70
59043;BME280;44826;51.596;5.624;2023-03-08T07:10:10;99512.22;;;-0.07;93.64
59043;BME280;44826;51.596;5.624;2023-03-08T07:12:36;99509.66;;;-0.06;93.80
59043;BME280;44826;51.596;5.624;2023-03-08T07:15:06;99502.00;;;-0.07;94.04
59043;BME280;44826;51.596;5.624;2023-03-08T07:17:31;99503.72;;;-0.06;94.15
59043;BME280;44826;51.596;5.624;2023-03-08T07:19:59;99502.84;;;-0.08;94.27
59043;BME280;44826;51.596;5.624;2023-03-08T07:22:24;99497.72;;;-0.07;94.20
59043;BME280;44826;51.596;5.624;2023-03-08T07:24:49;99493.47;;;-0.06;93.83
59043;BME280;44826;51.596;5.624;2023-03-08T07:27:14;99490.94;;;-0.09;93.78
59043;BME280;44826;51.596;5.624;2023-03-08T07:29:40;99491.78;;;-0.07;94.46
59043;BME280;44826;51.596;5.624;2023-03-08T07:32:05;99487.53;;;-0.08;93.90
59043;BME280;44826;51.596;5.624;2023-03-08T07:34:31;99487.50;;;-0.07;93.82
59043;BME280;44826;51.596;5.624;2023-03-08T07:36:56;99483.25;;;-0.06;93.73
59043;BME280;44826;51.596;5.624;2023-03-08T07:39:21;99478.13;;;-0.06;94.25
59043;BME280;44826;51.596;5.624;2023-03-08T07:41:47;99481.56;;;-0.07;94.06
59043;BME280;44826;51.596;5.624;2023-03-08T07:44:14;99478.97;;;-0.06;93.88
59043;BME280;44826;51.596;5.624;2023-03-08T07:46:39;99474.72;;;-0.05;94.23
59043;BME280;44826;51.596;5.624;2023-03-08T07:49:04;99466.19;;;-0.04;94.41
59043;BME280;44826;51.596;5.624;2023-03-08T07:51:34;99473.84;;;-0.03;94.20
59043;BME280;44826;51.596;5.624;2023-03-08T07:54:00;99462.78;;;-0.03;94.39
59043;BME280;44826;51.596;5.624;2023-03-08T07:56:25;99459.38;;;-0.02;93.63
59043;BME280;44826;51.596;5.624;2023-03-08T07:58:50;99465.34;;;0.00;94.09
59043;BME280;44826;51.596;5.624;2023-03-08T08:01:16;99461.91;;;-0.01;94.15
59043;BME280;44826;51.596;5.624;2023-03-08T08:03:41;99462.78;;;-0.02;94.04
59043;BME280;44826;51.596;5.624;2023-03-08T08:06:07;99455.13;;;-0.05;94.33
59043;BME280;44826;51.596;5.624;2023-03-08T08:08:33;99456.84;;;-0.05;94.42
59043;BME280;44826;51.596;5.624;2023-03-08T08:10:58;99447.47;;;-0.06;94.00
59043;BME280;44826;51.596;5.624;2023-03-08T08:13:24;99454.28;;;-0.05;93.96
59043;BME280;44826;51.596;5.624;2023-03-08T08:16:00;99438.13;;;-0.09;94.01
59043;BME280;44826;51.596;5.624;2023-03-08T08:18:26;99444.91;;;-0.06;93.87
59043;BME280;44826;51.596;5.624;2023-03-08T08:21:03;99436.38;;;-0.07;94.41
59043;BME280;44826;51.596;5.624;2023-03-08T08:23:29;99436.38;;;-0.07;93.35
59043;BME280;44826;51.596;5.624;2023-03-08T08:25:54;99439.78;;;-0.06;94.12
59043;BME280;44826;51.596;5.624;2023-03-08T08:28:21;99426.16;;;-0.05;93.45
59043;BME280;44826;51.596;5.624;2023-03-08T08:31:04;99422.78;;;-0.09;93.95
59043;BME280;44826;51.596;5.624;2023-03-08T08:33:31;99418.53;;;-0.10;93.33
59043;BME280;44826;51.596;5.624;2023-03-08T08:35:57;99421.09;;;-0.13;93.59
59043;BME280;44826;51.596;5.624;2023-03-08T08:38:23;99415.13;;;-0.17;93.62
59043;BME280;44826;51.596;5.624;2023-03-08T08:40:49;99417.66;;;-0.17;93.61
59043;BME280;44826;51.596;5.624;2023-03-08T08:43:15;99408.34;;;-0.18;93.76
59043;BME280;44826;51.596;5.624;2023-03-08T08:45:45;99396.41;;;-0.22;94.29
59043;BME280;44826;51.596;5.624;2023-03-08T08:48:11;99393.03;;;-0.24;93.71
59043;BME280;44826;51.596;5.624;2023-03-08T08:50:38;99384.47;;;-0.21;93.27
59043;BME280;44826;51.596;5.624;2023-03-08T08:53:03;99390.44;;;-0.22;93.37
59043;BME280;44826;51.596;5.624;2023-03-08T08:55:29;99394.72;;;-0.23;93.13
59043;BME280;44826;51.596;5.624;2023-03-08T08:57:54;99398.97;;;-0.22;93.31
59043;BME280;44826;51.596;5.624;2023-03-08T09:00:20;99403.22;;;-0.18;93.37
59043;BME280;44826;51.596;5.624;2023-03-08T09:02:45;99395.56;;;-0.18;93.80
59043;BME280;44826;51.596;5.624;2023-03-08T09:05:10;99404.88;;;-0.13;93.50
59043;BME280;44826;51.596;5.624;2023-03-08T09:07:35;99410.00;;;-0.09;93.13
59043;BME280;44826;51.596;5.624;2023-03-08T09:10:01;99409.94;;;-0.06;93.04
59043;BME280;44826;51.596;5.624;2023-03-08T09:12:28;99411.66;;;-0.03;93.19
59043;BME280;44826;51.596;5.624;2023-03-08T09:14:53;99408.22;;;0.01;93.26
59043;BME280;44826;51.596;5.624;2023-03-08T09:17:19;99409.06;;;0.02;93.09
59043;BME280;44826;51.596;5.624;2023-03-08T09:19:44;99411.59;;;0.03;92.94
59043;BME280;44826;51.596;5.624;2023-03-08T09:22:09;99398.84;;;0.02;93.39
59043;BME280;44826;51.596;5.624;2023-03-08T09:24:35;99380.09;;;0.01;92.85
59043;BME280;44826;51.596;5.624;2023-03-08T09:27:00;99370.72;;;0.02;92.82
59043;BME280;44826;51.596;5.624;2023-03-08T09:29:28;99357.06;;;0.01;92.90
59043;BME280;44826;51.596;5.624;2023-03-08T09:31:54;99345.13;;;0.05;92.70
59043;BME280;44826;51.596;5.624;2023-03-08T09:34:19;99350.25;;;0.03;93.07
59043;BME280;44826;51.596;5.624;2023-03-08T09:36:44;99336.59;;;0.07;93.32
59043;BME280;44826;51.596;5.624;2023-03-08T09:39:11;99339.09;;;0.12;93.27
59043;BME280;44826;51.596;5.624;2023-03-08T09:41:45;99346.75;;;0.17;93.13
59043;BME280;44826;51.596;5.624;2023-03-08T09:44:17;99339.88;;;0.25;93.27
59043;BME280;44826;51.596;5.624;2023-03-08T09:47:01;99337.25;;;0.34;93.16
59043;BME280;44826;51.596;5.624;2023-03-08T09:49:30;99332.09;;;0.39;92.42
59043;BME280;44826;51.596;5.624;2023-03-08T09:54:51;99329.50;;;0.42;92.30
59043;BME280;44826;51.596;5.624;2023-03-08T09:57:23;99317.50;;;0.49;92.45
59043;BME280;44826;51.596;5.624;2023-03-08T09:59:56;99308.88;;;0.56;92.20
59043;BME280;44826;51.596;5.624;2023-03-08T10:02:35;99313.91;;;0.68;92.40
59043;BME280;44826;51.596;5.624;2023-03-08T10:05:18;99321.47;;;0.78;92.32
59043;BME280;44826;51.596;5.624;2023-03-08T10:07:56;99309.44;;;0.87;91.81
59043;BME280;44826;51.596;5.624;2023-03-08T10:13:33;99289.69;;;0.97;91.25
59043;BME280;44826;51.596;5.624;2023-03-08T10:16:16;99299.03;;;1.01;91.36
59043;BME280;44826;51.596;5.624;2023-03-08T10:18:59;99301.50;;;1.08;91.35
59043;BME280;44826;51.596;5.624;2023-03-08T10:21:31;99304.81;;;1.19;90.83
59043;BME280;44826;51.596;5.624;2023-03-08T10:24:01;99304.72;;;1.25;90.43
59043;BME280;44826;51.596;5.624;2023-03-08T10:26:27;99313.25;;;1.27;90.26
59043;BME280;44826;51.596;5.624;2023-03-08T10:28:53;99308.13;;;1.27;90.40
59043;BME280;44826;51.596;5.624;2023-03-08T10:31:22;99313.19;;;1.32;90.08
59043;BME280;44826;51.596;5.624;2023-03-08T10:33:51;99308.03;;;1.35;90.14
59043;BME280;44826;51.596;5.624;2023-03-08T10:36:20;99304.56;;;1.39;89.72
59043;BME280;44826;51.596;5.624;2023-03-08T10:38:58;99290.03;;;1.38;89.57
59043;BME280;44826;51.596;5.624;2023-03-08T10:41:24;99294.31;;;1.39;89.89
59043;BME280;44826;51.596;5.624;2023-03-08T10:43:52;99293.41;;;1.43;89.68
59043;BME280;44826;51.596;5.624;2023-03-08T10:46:24;99283.16;;;1.42;89.93
59043;BME280;44826;51.596;5.624;2023-03-08T10:48:49;99283.94;;;1.47;89.82
59043;BME280;44826;51.596;5.624;2023-03-08T10:53:54;99273.66;;;1.50;89.51
59043;BME280;44826;51.596;5.624;2023-03-08T10:56:26;99277.06;;;1.52;89.67
59043;BME280;44826;51.596;5.624;2023-03-08T10:58:55;99270.13;;;1.57;89.41
59043;BME280;44826;51.596;5.624;2023-03-08T11:01:47;99265.81;;;1.59;88.95
59043;BME280;44826;51.596;5.624;2023-03-08T11:04:15;99265.88;;;1.56;88.84
59043;BME280;44826;51.596;5.624;2023-03-08T11:06:41;99267.56;;;1.57;88.83
59043;BME280;44826;51.596;5.624;2023-03-08T11:09:24;99280.31;;;1.63;89.17
59043;BME280;44826;51.596;5.624;2023-03-08T11:11:51;99277.59;;;1.73;89.09
59043;BME280;44826;51.596;5.624;2023-03-08T11:14:17;99280.13;;;1.76;88.62
59043;BME280;44826;51.596;5.624;2023-03-08T11:22:13;99283.59;;;1.72;88.38
59043;BME280;44826;51.596;5.624;2023-03-08T11:24:52;99276.84;;;1.67;88.57
59043;BME280;44826;51.596;5.624;2023-03-08T11:27:44;99286.22;;;1.67;88.25
59043;BME280;44826;51.596;5.624;2023-03-08T11:32:45;99294.03;;;1.59;88.31
59043;BME280;44826;51.596;5.624;2023-03-08T11:38:14;99272.72;;;1.56;88.27
59043;BME280;44826;51.596;5.624;2023-03-08T11:41:03;99270.13;;;1.57;88.52
59043;BME280;44826;51.596;5.624;2023-03-08T11:44:53;99283.88;;;1.53;88.14
59043;BME280;44826;51.596;5.624;2023-03-08T11:47:09;99260.03;;;1.48;87.98
59043;BME280;44826;51.596;5.624;2023-03-08T11:49:49;99265.19;;;1.45;87.84
59043;BME280;44826;51.596;5.624;2023-03-08T11:58:02;99232.69;;;1.47;87.93
59043;BME280;44826;51.596;5.624;2023-03-08T12:00:32;99237.78;;;1.50;88.06
59043;BME280;44826;51.596;5.624;2023-03-08T12:03:05;99227.53;;;1.50;87.62
59043;BME280;44826;51.596;5.624;2023-03-08T12:05:38;99223.22;;;1.52;87.62
59043;BME280;44826;51.596;5.624;2023-03-08T12:08:15;99233.41;;;1.57;87.98
59043;BME280;44826;51.596;5.624;2023-03-08T12:10:59;99228.16;;;1.63;87.91
59043;BME280;44826;51.596;5.624;2023-03-08T12:13:39;99225.56;;;1.67;87.52
59043;BME280;44826;51.596;5.624;2023-03-08T12:18:47;99224.53;;;1.78;87.52
59043;BME280;44826;51.596;5.624;2023-03-08T12:21:36;99216.81;;;1.79;87.24
59043;BME280;44826;51.596;5.624;2023-03-08T12:26:55;99221.00;;;1.85;87.36
59043;BME280;44826;51.596;5.624;2023-03-08T12:29:35;99229.56;;;1.84;87.55
59043;BME280;44826;51.596;5.624;2023-03-08T12:32:03;99234.72;;;1.82;87.34
59043;BME280;44826;51.596;5.624;2023-03-08T12:34:39;99237.28;;;1.84;87.03
59043;BME280;44826;51.596;5.624;2023-03-08T12:37:27;99233.84;;;1.85;86.97
59043;BME280;44826;51.596;5.624;2023-03-08T12:42:35;99230.44;;;1.83;86.88
59043;BME280;44826;51.596;5.624;2023-03-08T12:50:29;99227.25;;;1.69;86.68
59043;BME280;44826;51.596;5.624;2023-03-08T12:52:55;99222.97;;;1.69;87.24
59043;BME280;44826;51.596;5.624;2023-03-08T12:55:28;99206.69;;;1.72;87.11
59043;BME280;44826;51.596;5.624;2023-03-08T12:57:58;99196.41;;;1.72;87.13
59043;BME280;44826;51.596;5.624;2023-03-08T13:05:38;99169.91;;;1.73;87.08
59043;BME280;44826;51.596;5.624;2023-03-08T13:08:19;99164.78;;;1.74;87.14
59043;BME280;44826;51.596;5.624;2023-03-08T13:11:04;99163.09;;;1.73;87.07
59043;BME280;44826;51.596;5.624;2023-03-08T13:13:41;99161.34;;;1.75;87.46
59043;BME280;44826;51.596;5.624;2023-03-08T13:18:44;99140.72;;;1.81;87.78
59043;BME280;44826;51.596;5.624;2023-03-08T13:23:58;99158.69;;;1.80;87.24
59043;BME280;44826;51.596;5.624;2023-03-08T13:29:31;99178.38;;;1.78;87.29
59043;BME280;44826;51.596;5.624;2023-03-08T13:32:03;99178.38;;;1.78;87.00
59043;BME280;44826;51.596;5.624;2023-03-08T13:34:31;99171.56;;;1.77;86.79
59043;BME280;44826;51.596;5.624;2023-03-08T13:36:57;99192.94;;;1.76;87.10
59043;BME280;44826;51.596;5.624;2023-03-08T13:39:25;99200.56;;;1.80;87.02
59043;BME280;44826;51.596;5.624;2023-03-08T13:41:51;99193.81;;;1.76;86.84
59043;BME280;44826;51.596;5.624;2023-03-08T13:46:44;99183.56;;;1.75;86.60
59043;BME280;44826;51.596;5.624;2023-03-08T13:49:21;99181.94;;;1.71;86.58
59043;BME280;44826;51.596;5.624;2023-03-08T13:51:50;99195.63;;;1.68;86.80
59043;BME280;44826;51.596;5.624;2023-03-08T13:54:24;99188.81;;;1.69;86.81
59043;BME280;44826;51.596;5.624;2023-03-08T13:56:54;99182.91;;;1.63;86.73
59043;BME280;44826;51.596;5.624;2023-03-08T13:59:20;99180.38;;;1.62;86.97
59043;BME280;44826;51.596;5.624;2023-03-08T14:01:49;99182.03;;;1.63;87.39
59043;BME280;44826;51.596;5.624;2023-03-08T14:04:21;99171.78;;;1.64;86.86
59043;BME280;44826;51.596;5.624;2023-03-08T14:06:55;99175.22;;;1.63;86.74
59043;BME280;44826;51.596;5.624;2023-03-08T14:09:21;99158.16;;;1.61;86.69